sensor_id;sensor_type;location;lat;lon;timestamp;P1;durP1;ratioP1;P2;durP2;ratioP2
20449;SDS011;10384;51.940;8.432;2023-03-14T00:00:58;4.53;;;1.10;;
20449;SDS011;10384;51.940;8.432;2023-03-14T00:03:24;2.30;;;1.00;;
20449;SDS011;10384;51.940;8.432;2023-03-14T00:05:50;1.77;;;0.87;;
20449;SDS011;10384;51.940;8.432;2023-03-14T00:08:16;2.37;;;1.10;;
20449;SDS011;10384;51.940;8.432;2023-03-14T00:10:42;2.60;;;1.10;;
20449;SDS011;10384;51.940;8.432;2023-03-14T00:13:08;3.43;;;1.00;;
20449;SDS011;10384;51.940;8.432;2023-03-14T00:15:34;3.30;;;1.20;;
20449;SDS011;10384;51.940;8.432;2023-03-14T00:18:00;3.40;;;1.10;;
20449;SDS011;10384;51.940;8.432;2023-03-14T00:20:27;2.87;;;1.00;;
20449;SDS011;10384;51.940;8.432;2023-03-14T00:22:53;3.10;;;0.97;;
20449;SDS011;10384;51.940;8.432;2023-03-14T00:25:19;4.20;;;1.00;;
20449;SDS011;10384;51.940;8.432;2023-03-14T00:27:45;4.50;;;1.07;;
20449;SDS011;10384;51.940;8.432;2023-03-14T00:30:11;1.40;;;0.90;;
20449;SDS011;10384;51.940;8.432;2023-03-14T00:32:37;4.57;;;1.03;;
20449;SDS011;10384;51.940;8.432;2023-03-14T00:35:03;3.43;;;1.30;;
20449;SDS011;10384;51.940;8.432;2023-03-14T00:37:29;3.33;;;1.27;;
20449;SDS011;10384;51.940;8.432;2023-03-14T00:39:55;4.07;;;1.00;;
20449;SDS011;10384;51.940;8.432;2023-03-14T00:42:22;3.57;;;1.20;;
20449;SDS011;10384;51.940;8.432;2023-03-14T00:44:48;3.47;;;1.20;;
20449;SDS011;10384;51.940;8.432;2023-03-14T00:47:14;1.87;;;0.90;;
20449;SDS011;10384;51.940;8.432;2023-03-14T00:49:40;3.53;;;1.37;;
20449;SDS011;10384;51.940;8.432;2023-03-14T00:52:08;1.40;;;1.00;;
20449;SDS011;10384;51.940;8.432;2023-03-14T00:54:34;2.23;;;0.93;;
20449;SDS011;10384;51.940;8.432;2023-03-14T00:57:00;3.87;;;1.07;;
20449;SDS011;10384;51.940;8.432;2023-03-14T00:59:26;3.93;;;1.10;;
20449;SDS011;10384;51.940;8.432;2023-03-14T01:01:52;2.70;;;1.10;;
20449;SDS011;10384;51.940;8.432;2023-03-14T01:04:18;3.30;;;1.20;;
20449;SDS011;10384;51.940;8.432;2023-03-14T01:06:44;3.10;;;1.20;;
20449;SDS011;10384;51.940;8.432;2023-03-14T01:09:10;4.67;;;0.90;;
20449;SDS011;10384;51.940;8.432;2023-03-14T01:11:36;4.67;;;1.10;;
20449;SDS011;10384;51.940;8.432;2023-03-14T01:14:02;3.27;;;1.20;;
20449;SDS011;10384;51.940;8.432;2023-03-14T01:16:30;3.60;;;0.90;;
20449;SDS011;10384;51.940;8.432;2023-03-14T01:18:56;4.67;;;2.13;;
20449;SDS011;10384;51.940;8.432;2023-03-14T01:21:26;3.83;;;1.37;;
20449;SDS011;10384;51.940;8.432;2023-03-14T01:23:53;3.17;;;1.00;;
20449;SDS011;10384;51.940;8.432;2023-03-14T01:26:20;4.10;;;1.00;;
20449;SDS011;10384;51.940;8.432;2023-03-14T01:28:47;4.23;;;1.33;;
20449;SDS011;10384;51.940;8.432;2023-03-14T01:31:14;4.47;;;1.13;;
20449;SDS011;10384;51.940;8.432;2023-03-14T01:33:40;4.07;;;0.90;;
20449;SDS011;10384;51.940;8.432;2023-03-14T01:36:06;5.60;;;1.67;;
20449;SDS011;10384;51.940;8.432;2023-03-14T01:38:33;5.80;;;1.00;;
20449;SDS011;10384;51.940;8.432;2023-03-14T01:41:00;2.00;;;0.90;;
20449;SDS011;10384;51.940;8.432;2023-03-14T01:43:26;3.07;;;1.10;;
20449;SDS011;10384;51.940;8.432;2023-03-14T01:51:20;6.23;;;1.03;;
20449;SDS011;10384;51.940;8.432;2023-03-14T01:53:47;3.97;;;1.00;;
20449;SDS011;10384;51.940;8.432;2023-03-14T01:56:14;3.80;;;1.30;;
20449;SDS011;10384;51.940;8.432;2023-03-14T01:58:41;3.50;;;1.00;;
20449;SDS011;10384;51.940;8.432;2023-03-14T02:01:09;5.27;;;0.90;;
20449;SDS011;10384;51.940;8.432;2023-03-14T02:03:38;2.43;;;0.90;;
20449;SDS011;10384;51.940;8.432;2023-03-14T02:06:08;2.37;;;1.00;;
20449;SDS011;10384;51.940;8.432;2023-03-14T02:08:34;2.90;;;0.90;;
20449;SDS011;10384;51.940;8.432;2023-03-14T02:11:01;2.67;;;0.80;;
20449;SDS011;10384;51.940;8.432;2023-03-14T02:13:27;5.63;;;1.10;;
20449;SDS011;10384;51.940;8.432;2023-03-14T02:15:53;4.30;;;0.97;;
20449;SDS011;10384;51.940;8.432;2023-03-14T02:18:19;2.53;;;0.80;;
20449;SDS011;10384;51.940;8.432;2023-03-14T02:23:11;5.03;;;1.10;;
20449;SDS011;10384;51.940;8.432;2023-03-14T02:25:43;6.33;;;1.80;;
20449;SDS011;10384;51.940;8.432;2023-03-14T02:28:11;2.70;;;0.70;;
20449;SDS011;10384;51.940;8.432;2023-03-14T02:30:38;0.70;;;0.70;;
20449;SDS011;10384;51.940;8.432;2023-03-14T02:33:14;0.87;;;0.50;;
20449;SDS011;10384;51.940;8.432;2023-03-14T02:35:44;3.60;;;0.80;;
20449;SDS011;10384;51.940;8.432;2023-03-14T02:38:19;1.17;;;0.70;;
20449;SDS011;10384;51.940;8.432;2023-03-14T02:40:46;3.60;;;1.40;;
20449;SDS011;10384;51.940;8.432;2023-03-14T02:43:13;7.80;;;2.87;;
20449;SDS011;10384;51.940;8.432;2023-03-14T02:48:12;9.10;;;2.00;;
20449;SDS011;10384;51.940;8.432;2023-03-14T02:50:39;3.80;;;1.00;;
20449;SDS011;10384;51.940;8.432;2023-03-14T02:53:05;2.40;;;1.07;;
20449;SDS011;10384;51.940;8.432;2023-03-14T02:55:31;5.37;;;1.10;;
20449;SDS011;10384;51.940;8.432;2023-03-14T02:57:57;1.23;;;0.57;;
20449;SDS011;10384;51.940;8.432;2023-03-14T03:00:23;0.53;;;0.50;;
20449;SDS011;10384;51.940;8.432;2023-03-14T03:02:49;0.70;;;0.60;;
20449;SDS011;10384;51.940;8.432;2023-03-14T03:05:15;0.90;;;0.60;;
20449;SDS011;10384;51.940;8.432;2023-03-14T03:07:41;2.23;;;0.83;;
20449;SDS011;10384;51.940;8.432;2023-03-14T03:10:07;2.23;;;0.50;;
20449;SDS011;10384;51.940;8.432;2023-03-14T03:12:34;1.83;;;0.70;;
20449;SDS011;10384;51.940;8.432;2023-03-14T03:15:00;2.43;;;0.60;;
20449;SDS011;10384;51.940;8.432;2023-03-14T03:17:26;1.33;;;0.80;;
20449;SDS011;10384;51.940;8.432;2023-03-14T03:19:52;0.97;;;0.47;;
20449;SDS011;10384;51.940;8.432;2023-03-14T03:22:18;2.83;;;0.60;;
20449;SDS011;10384;51.940;8.432;2023-03-14T03:24:44;1.50;;;0.60;;
20449;SDS011;10384;51.940;8.432;2023-03-14T03:27:10;1.33;;;0.60;;
20449;SDS011;10384;51.940;8.432;2023-03-14T03:29:36;1.53;;;0.40;;
20449;SDS011;10384;51.940;8.432;2023-03-14T03:32:02;1.97;;;0.80;;
20449;SDS011;10384;51.940;8.432;2023-03-14T03:34:28;3.10;;;0.40;;
20449;SDS011;10384;51.940;8.432;2023-03-14T03:36:57;0.80;;;0.57;;
20449;SDS011;10384;51.940;8.432;2023-03-14T03:39:23;2.30;;;0.47;;
20449;SDS011;10384;51.940;8.432;2023-03-14T03:41:49;1.47;;;0.50;;
20449;SDS011;10384;51.940;8.432;2023-03-14T03:44:15;0.80;;;0.40;;
20449;SDS011;10384;51.940;8.432;2023-03-14T03:46:41;1.00;;;0.50;;
20449;SDS011;10384;51.940;8.432;2023-03-14T03:49:08;1.63;;;0.60;;
20449;SDS011;10384;51.940;8.432;2023-03-14T03:51:34;6.30;;;1.30;;
20449;SDS011;10384;51.940;8.432;2023-03-14T03:54:00;4.37;;;1.33;;
20449;SDS011;10384;51.940;8.432;2023-03-14T03:56:26;6.50;;;2.27;;
20449;SDS011;10384;51.940;8.432;2023-03-14T03:58:52;8.90;;;2.57;;
20449;SDS011;10384;51.940;8.432;2023-03-14T04:01:18;9.37;;;2.37;;
20449;SDS011;10384;51.940;8.432;2023-03-14T04:03:44;6.10;;;2.20;;
20449;SDS011;10384;51.940;8.432;2023-03-14T04:06:11;9.27;;;3.07;;
20449;SDS011;10384;51.940;8.432;2023-03-14T04:08:37;15.53;;;4.97;;
20449;SDS011;10384;51.940;8.432;2023-03-14T04:11:05;13.07;;;4.70;;
20449;SDS011;10384;51.940;8.432;2023-03-14T04:13:31;15.50;;;5.17;;
20449;SDS011;10384;51.940;8.432;2023-03-14T04:15:57;14.73;;;5.20;;
20449;SDS011;10384;51.940;8.432;2023-03-14T04:18:23;14.50;;;4.83;;
20449;SDS011;10384;51.940;8.432;2023-03-14T04:20:53;4.00;;;1.80;;
20449;SDS011;10384;51.940;8.432;2023-03-14T04:23:19;6.47;;;1.83;;
20449;SDS011;10384;51.940;8.432;2023-03-14T04:25:45;7.43;;;1.20;;
20449;SDS011;10384;51.940;8.432;2023-03-14T04:28:11;4.13;;;1.20;;
20449;SDS011;10384;51.940;8.432;2023-03-14T04:30:37;6.00;;;0.70;;
20449;SDS011;10384;51.940;8.432;2023-03-14T04:33:03;4.97;;;0.87;;
20449;SDS011;10384;51.940;8.432;2023-03-14T04:35:32;3.30;;;0.70;;
20449;SDS011;10384;51.940;8.432;2023-03-14T04:37:58;7.40;;;0.90;;
20449;SDS011;10384;51.940;8.432;2023-03-14T04:40:24;5.03;;;1.00;;
20449;SDS011;10384;51.940;8.432;2023-03-14T04:42:51;3.10;;;1.20;;
20449;SDS011;10384;51.940;8.432;2023-03-14T04:45:17;3.60;;;0.90;;
20449;SDS011;10384;51.940;8.432;2023-03-14T04:47:43;2.20;;;0.60;;
20449;SDS011;10384;51.940;8.432;2023-03-14T04:50:09;2.33;;;0.73;;
20449;SDS011;10384;51.940;8.432;2023-03-14T04:52:35;3.57;;;0.90;;
20449;SDS011;10384;51.940;8.432;2023-03-14T04:55:01;3.93;;;1.37;;
20449;SDS011;10384;51.940;8.432;2023-03-14T04:57:27;1.80;;;0.87;;
20449;SDS011;10384;51.940;8.432;2023-03-14T04:59:53;4.63;;;0.90;;
20449;SDS011;10384;51.940;8.432;2023-03-14T05:02:19;3.97;;;0.80;;
20449;SDS011;10384;51.940;8.432;2023-03-14T05:04:45;3.40;;;0.73;;
20449;SDS011;10384;51.940;8.432;2023-03-14T05:07:11;3.03;;;1.00;;
20449;SDS011;10384;51.940;8.432;2023-03-14T05:09:37;2.57;;;0.70;;
20449;SDS011;10384;51.940;8.432;2023-03-14T05:12:03;4.90;;;0.73;;
20449;SDS011;10384;51.940;8.432;2023-03-14T05:14:29;1.53;;;0.60;;
20449;SDS011;10384;51.940;8.432;2023-03-14T05:16:55;4.50;;;0.57;;
20449;SDS011;10384;51.940;8.432;2023-03-14T05:19:21;5.43;;;0.80;;
20449;SDS011;10384;51.940;8.432;2023-03-14T05:21:47;3.30;;;0.80;;
20449;SDS011;10384;51.940;8.432;2023-03-14T05:24:13;1.80;;;0.70;;
20449;SDS011;10384;51.940;8.432;2023-03-14T05:26:39;3.90;;;0.90;;
20449;SDS011;10384;51.940;8.432;2023-03-14T05:29:05;3.47;;;0.70;;
20449;SDS011;10384;51.940;8.432;2023-03-14T05:31:31;3.10;;;0.60;;
20449;SDS011;10384;51.940;8.432;2023-03-14T05:33:57;4.07;;;0.80;;
20449;SDS011;10384;51.940;8.432;2023-03-14T05:36:23;3.43;;;0.90;;
20449;SDS011;10384;51.940;8.432;2023-03-14T05:38:49;3.10;;;0.70;;
20449;SDS011;10384;51.940;8.432;2023-03-14T05:41:15;3.90;;;1.10;;
20449;SDS011;10384;51.940;8.432;2023-03-14T05:43:41;3.30;;;0.67;;
20449;SDS011;10384;51.940;8.432;2023-03-14T05:46:07;1.83;;;0.60;;
20449;SDS011;10384;51.940;8.432;2023-03-14T05:48:33;2.03;;;0.87;;
20449;SDS011;10384;51.940;8.432;2023-03-14T05:50:59;2.83;;;0.70;;
20449;SDS011;10384;51.940;8.432;2023-03-14T05:53:25;7.30;;;3.07;;
20449;SDS011;10384;51.940;8.432;2023-03-14T05:55:54;8.63;;;3.10;;
20449;SDS011;10384;51.940;8.432;2023-03-14T05:58:20;13.50;;;5.30;;
20449;SDS011;10384;51.940;8.432;2023-03-14T06:00:46;11.93;;;4.60;;
20449;SDS011;10384;51.940;8.432;2023-03-14T06:03:12;11.40;;;5.00;;
20449;SDS011;10384;51.940;8.432;2023-03-14T06:05:38;12.20;;;4.60;;
20449;SDS011;10384;51.940;8.432;2023-03-14T06:08:04;7.83;;;3.27;;
20449;SDS011;10384;51.940;8.432;2023-03-14T06:10:30;4.47;;;2.10;;
20449;SDS011;10384;51.940;8.432;2023-03-14T06:12:56;4.23;;;1.80;;
20449;SDS011;10384;51.940;8.432;2023-03-14T06:15:22;2.80;;;1.50;;
20449;SDS011;10384;51.940;8.432;2023-03-14T06:17:48;3.30;;;0.80;;
20449;SDS011;10384;51.940;8.432;2023-03-14T06:20:14;1.40;;;0.80;;
20449;SDS011;10384;51.940;8.432;2023-03-14T06:22:40;0.93;;;0.70;;
20449;SDS011;10384;51.940;8.432;2023-03-14T06:25:07;1.63;;;0.63;;
20449;SDS011;10384;51.940;8.432;2023-03-14T06:27:33;0.67;;;0.40;;
20449;SDS011;10384;51.940;8.432;2023-03-14T06:29:59;0.50;;;0.40;;
20449;SDS011;10384;51.940;8.432;2023-03-14T06:32:25;0.73;;;0.50;;
20449;SDS011;10384;51.940;8.432;2023-03-14T06:34:51;1.60;;;0.37;;
20449;SDS011;10384;51.940;8.432;2023-03-14T06:37:18;1.33;;;0.40;;
20449;SDS011;10384;51.940;8.432;2023-03-14T06:39:44;1.03;;;0.40;;
20449;SDS011;10384;51.940;8.432;2023-03-14T06:42:10;0.33;;;0.30;;
20449;SDS011;10384;51.940;8.432;2023-03-14T06:44:36;0.73;;;0.40;;
20449;SDS011;10384;51.940;8.432;2023-03-14T06:47:02;3.53;;;1.40;;
20449;SDS011;10384;51.940;8.432;2023-03-14T06:49:28;7.07;;;2.60;;
20449;SDS011;10384;51.940;8.432;2023-03-14T06:51:54;5.47;;;2.60;;
20449;SDS011;10384;51.940;8.432;2023-03-14T06:54:20;6.00;;;2.33;;
20449;SDS011;10384;51.940;8.432;2023-03-14T06:56:46;8.57;;;4.17;;
20449;SDS011;10384;51.940;8.432;2023-03-14T06:59:12;11.40;;;5.63;;
20449;SDS011;10384;51.940;8.432;2023-03-14T07:01:38;9.67;;;4.03;;
20449;SDS011;10384;51.940;8.432;2023-03-14T07:04:05;9.07;;;2.67;;
20449;SDS011;10384;51.940;8.432;2023-03-14T07:06:31;5.90;;;2.77;;
20449;SDS011;10384;51.940;8.432;2023-03-14T07:08:57;5.90;;;2.00;;
20449;SDS011;10384;51.940;8.432;2023-03-14T07:11:23;3.53;;;1.53;;
20449;SDS011;10384;51.940;8.432;2023-03-14T07:13:49;4.33;;;1.97;;
20449;SDS011;10384;51.940;8.432;2023-03-14T07:16:15;4.90;;;2.20;;
20449;SDS011;10384;51.940;8.432;2023-03-14T07:18:41;2.57;;;1.40;;
20449;SDS011;10384;51.940;8.432;2023-03-14T07:21:07;2.30;;;1.20;;
20449;SDS011;10384;51.940;8.432;2023-03-14T07:23:34;1.77;;;1.03;;
20449;SDS011;10384;51.940;8.432;2023-03-14T07:26:00;5.27;;;2.27;;
20449;SDS011;10384;51.940;8.432;2023-03-14T07:28:26;6.50;;;2.80;;
20449;SDS011;10384;51.940;8.432;2023-03-14T07:30:53;6.93;;;2.60;;
20449;SDS011;10384;51.940;8.432;2023-03-14T07:33:19;3.73;;;1.73;;
20449;SDS011;10384;51.940;8.432;2023-03-14T07:35:48;6.27;;;2.50;;
20449;SDS011;10384;51.940;8.432;2023-03-14T07:38:15;1.70;;;0.90;;
20449;SDS011;10384;51.940;8.432;2023-03-14T07:40:41;1.43;;;0.60;;
20449;SDS011;10384;51.940;8.432;2023-03-14T07:43:07;2.67;;;0.53;;
20449;SDS011;10384;51.940;8.432;2023-03-14T07:45:33;0.80;;;0.50;;
20449;SDS011;10384;51.940;8.432;2023-03-14T07:47:59;1.90;;;1.00;;
20449;SDS011;10384;51.940;8.432;2023-03-14T07:50:27;1.67;;;0.90;;
20449;SDS011;10384;51.940;8.432;2023-03-14T07:52:53;1.33;;;1.00;;
20449;SDS011;10384;51.940;8.432;2023-03-14T07:55:19;1.67;;;1.00;;
20449;SDS011;10384;51.940;8.432;2023-03-14T07:57:46;3.43;;;1.23;;
20449;SDS011;10384;51.940;8.432;2023-03-14T08:00:12;1.43;;;0.80;;
20449;SDS011;10384;51.940;8.432;2023-03-14T08:02:39;3.00;;;1.00;;
20449;SDS011;10384;51.940;8.432;2023-03-14T08:05:05;1.43;;;1.00;;
20449;SDS011;10384;51.940;8.432;2023-03-14T08:07:31;1.30;;;0.80;;
20449;SDS011;10384;51.940;8.432;2023-03-14T08:09:57;1.10;;;0.87;;
20449;SDS011;10384;51.940;8.432;2023-03-14T08:12:23;2.53;;;0.90;;
20449;SDS011;10384;51.940;8.432;2023-03-14T08:14:49;0.83;;;0.70;;
20449;SDS011;10384;51.940;8.432;2023-03-14T08:17:15;1.53;;;1.10;;
20449;SDS011;10384;51.940;8.432;2023-03-14T08:19:41;2.37;;;1.10;;
20449;SDS011;10384;51.940;8.432;2023-03-14T08:22:07;1.23;;;0.80;;
20449;SDS011;10384;51.940;8.432;2023-03-14T08:24:33;2.27;;;1.00;;
20449;SDS011;10384;51.940;8.432;2023-03-14T08:27:00;1.27;;;0.80;;
20449;SDS011;10384;51.940;8.432;2023-03-14T08:29:26;1.27;;;0.77;;
20449;SDS011;10384;51.940;8.432;2023-03-14T08:31:52;1.10;;;0.90;;
20449;SDS011;10384;51.940;8.432;2023-03-14T08:34:19;2.37;;;1.20;;
20449;SDS011;10384;51.940;8.432;2023-03-14T08:36:45;6.17;;;2.83;;
20449;SDS011;10384;51.940;8.432;2023-03-14T08:39:11;6.07;;;2.87;;
20449;SDS011;10384;51.940;8.432;2023-03-14T08:41:37;4.33;;;1.77;;
20449;SDS011;10384;51.940;8.432;2023-03-14T08:44:09;3.67;;;1.90;;
20449;SDS011;10384;51.940;8.432;2023-03-14T08:46:36;2.60;;;1.53;;
20449;SDS011;10384;51.940;8.432;2023-03-14T08:49:02;3.60;;;2.37;;
20449;SDS011;10384;51.940;8.432;2023-03-14T08:51:29;4.17;;;2.10;;
20449;SDS011;10384;51.940;8.432;2023-03-14T08:53:55;5.20;;;2.50;;
20449;SDS011;10384;51.940;8.432;2023-03-14T08:56:21;5.97;;;2.60;;
20449;SDS011;10384;51.940;8.432;2023-03-14T08:58:47;10.23;;;4.53;;
20449;SDS011;10384;51.940;8.432;2023-03-14T09:01:13;8.07;;;4.27;;
20449;SDS011;10384;51.940;8.432;2023-03-14T09:03:39;8.33;;;4.37;;
20449;SDS011;10384;51.940;8.432;2023-03-14T09:06:06;7.10;;;3.77;;
20449;SDS011;10384;51.940;8.432;2023-03-14T09:08:32;6.27;;;3.23;;
20449;SDS011;10384;51.940;8.432;2023-03-14T09:10:58;7.33;;;3.47;;
20449;SDS011;10384;51.940;8.432;2023-03-14T09:13:24;4.37;;;2.10;;
20449;SDS011;10384;51.940;8.432;2023-03-14T09:15:51;3.37;;;1.60;;
20449;SDS011;10384;51.940;8.432;2023-03-14T09:18:17;4.77;;;2.30;;
20449;SDS011;10384;51.940;8.432;2023-03-14T09:20:43;3.60;;;2.03;;
20449;SDS011;10384;51.940;8.432;2023-03-14T09:23:09;3.00;;;1.50;;
20449;SDS011;10384;51.940;8.432;2023-03-14T09:25:35;1.57;;;1.10;;
20449;SDS011;10384;51.940;8.432;2023-03-14T09:28:02;3.53;;;2.10;;
20449;SDS011;10384;51.940;8.432;2023-03-14T09:30:28;2.67;;;1.40;;
20449;SDS011;10384;51.940;8.432;2023-03-14T09:32:54;2.07;;;1.30;;
20449;SDS011;10384;51.940;8.432;2023-03-14T09:35:20;1.33;;;1.17;;
20449;SDS011;10384;51.940;8.432;2023-03-14T09:37:46;4.23;;;2.30;;
20449;SDS011;10384;51.940;8.432;2023-03-14T09:40:12;5.07;;;2.17;;
20449;SDS011;10384;51.940;8.432;2023-03-14T09:42:39;2.27;;;1.50;;
20449;SDS011;10384;51.940;8.432;2023-03-14T09:45:06;1.90;;;1.00;;
20449;SDS011;10384;51.940;8.432;2023-03-14T09:47:35;1.23;;;1.00;;
20449;SDS011;10384;51.940;8.432;2023-03-14T09:50:01;2.30;;;1.10;;
20449;SDS011;10384;51.940;8.432;2023-03-14T09:52:30;3.03;;;1.30;;
20449;SDS011;10384;51.940;8.432;2023-03-14T09:54:59;1.80;;;1.20;;
20449;SDS011;10384;51.940;8.432;2023-03-14T09:57:28;2.27;;;1.30;;
20449;SDS011;10384;51.940;8.432;2023-03-14T09:59:58;1.87;;;1.37;;
20449;SDS011;10384;51.940;8.432;2023-03-14T10:02:32;3.40;;;2.00;;
20449;SDS011;10384;51.940;8.432;2023-03-14T10:04:59;2.37;;;1.37;;
20449;SDS011;10384;51.940;8.432;2023-03-14T10:07:29;2.43;;;1.40;;
20449;SDS011;10384;51.940;8.432;2023-03-14T10:09:56;2.37;;;1.43;;
20449;SDS011;10384;51.940;8.432;2023-03-14T10:12:56;2.83;;;1.77;;
20449;SDS011;10384;51.940;8.432;2023-03-14T10:15:15;1.70;;;1.40;;
20449;SDS011;10384;51.940;8.432;2023-03-14T10:17:48;2.80;;;1.90;;
20449;SDS011;10384;51.940;8.432;2023-03-14T10:22:56;2.43;;;2.03;;
20449;SDS011;10384;51.940;8.432;2023-03-14T10:25:41;3.43;;;2.00;;
20449;SDS011;10384;51.940;8.432;2023-03-14T10:28:22;3.30;;;2.37;;
20449;SDS011;10384;51.940;8.432;2023-03-14T10:30:49;2.67;;;1.90;;
20449;SDS011;10384;51.940;8.432;2023-03-14T10:35:44;7.37;;;2.40;;
20449;SDS011;10384;51.940;8.432;2023-03-14T10:38:12;3.60;;;2.27;;
20449;SDS011;10384;51.940;8.432;2023-03-14T10:40:39;1.73;;;0.90;;
20449;SDS011;10384;51.940;8.432;2023-03-14T10:43:06;0.70;;;0.67;;
20449;SDS011;10384;51.940;8.432;2023-03-14T10:45:36;0.90;;;0.60;;
20449;SDS011;10384;51.940;8.432;2023-03-14T10:48:23;1.07;;;0.60;;
20449;SDS011;10384;51.940;8.432;2023-03-14T10:51:10;2.00;;;0.70;;
20449;SDS011;10384;51.940;8.432;2023-03-14T10:53:49;0.50;;;0.50;;
20449;SDS011;10384;51.940;8.432;2023-03-14T10:56:19;1.40;;;0.40;;
20449;SDS011;10384;51.940;8.432;2023-03-14T10:58:46;0.80;;;0.70;;
20449;SDS011;10384;51.940;8.432;2023-03-14T11:01:58;0.40;;;0.40;;
20449;SDS011;10384;51.940;8.432;2023-03-14T11:08:53;0.60;;;0.57;;
20449;SDS011;10384;51.940;8.432;2023-03-14T11:11:23;1.70;;;0.60;;
20449;SDS011;10384;51.940;8.432;2023-03-14T11:24:40;2.53;;;1.07;;
20449;SDS011;10384;51.940;8.432;2023-03-14T11:27:18;6.90;;;0.90;;
20449;SDS011;10384;51.940;8.432;2023-03-14T11:32:21;2.40;;;0.90;;
20449;SDS011;10384;51.940;8.432;2023-03-14T11:34:53;4.07;;;0.77;;
20449;SDS011;10384;51.940;8.432;2023-03-14T11:37:27;4.57;;;1.20;;
20449;SDS011;10384;51.940;8.432;2023-03-14T11:42:39;1.03;;;0.77;;
20449;SDS011;10384;51.940;8.432;2023-03-14T11:45:15;2.30;;;0.80;;
20449;SDS011;10384;51.940;8.432;2023-03-14T11:47:42;1.67;;;0.40;;
20449;SDS011;10384;51.940;8.432;2023-03-14T11:52:44;1.87;;;0.40;;
20449;SDS011;10384;51.940;8.432;2023-03-14T11:57:38;2.30;;;0.50;;
20449;SDS011;10384;51.940;8.432;2023-03-14T12:00:18;2.37;;;0.73;;
20449;SDS011;10384;51.940;8.432;2023-03-14T12:05:36;3.00;;;0.67;;
20449;SDS011;10384;51.940;8.432;2023-03-14T12:11:18;5.03;;;1.07;;
20449;SDS011;10384;51.940;8.432;2023-03-14T12:13:27;2.90;;;0.70;;
20449;SDS011;10384;51.940;8.432;2023-03-14T12:15:58;6.27;;;1.23;;
20449;SDS011;10384;51.940;8.432;2023-03-14T12:18:34;2.53;;;0.80;;
20449;SDS011;10384;51.940;8.432;2023-03-14T12:21:05;5.93;;;1.17;;
20449;SDS011;10384;51.940;8.432;2023-03-14T12:24:14;4.33;;;1.10;;
20449;SDS011;10384;51.940;8.432;2023-03-14T12:26:25;3.27;;;0.80;;
20449;SDS011;10384;51.940;8.432;2023-03-14T12:36:51;5.17;;;1.63;;
20449;SDS011;10384;51.940;8.432;2023-03-14T12:42:04;7.07;;;1.80;;
20449;SDS011;10384;51.940;8.432;2023-03-14T12:46:57;11.13;;;1.70;;
20449;SDS011;10384;51.940;8.432;2023-03-14T12:49:29;11.93;;;2.40;;
20449;SDS011;10384;51.940;8.432;2023-03-14T12:51:59;6.80;;;1.00;;
20449;SDS011;10384;51.940;8.432;2023-03-14T12:54:35;6.77;;;1.30;;
20449;SDS011;10384;51.940;8.432;2023-03-14T12:57:08;8.37;;;2.00;;
20449;SDS011;10384;51.940;8.432;2023-03-14T12:59:45;3.50;;;0.87;;
20449;SDS011;10384;51.940;8.432;2023-03-14T13:02:37;11.47;;;1.20;;
20449;SDS011;10384;51.940;8.432;2023-03-14T13:05:11;4.03;;;0.80;;
20449;SDS011;10384;51.940;8.432;2023-03-14T13:12:50;3.73;;;0.80;;
20449;SDS011;10384;51.940;8.432;2023-03-14T13:17:46;7.13;;;1.60;;
20449;SDS011;10384;51.940;8.432;2023-03-14T13:20:15;8.53;;;1.47;;
20449;SDS011;10384;51.940;8.432;2023-03-14T13:22:45;5.40;;;1.07;;
20449;SDS011;10384;51.940;8.432;2023-03-14T13:25:11;9.67;;;1.53;;
20449;SDS011;10384;51.940;8.432;2023-03-14T13:27:37;4.03;;;1.00;;
20449;SDS011;10384;51.940;8.432;2023-03-14T13:32:41;8.03;;;1.23;;
20449;SDS011;10384;51.940;8.432;2023-03-14T13:35:15;9.17;;;1.60;;
20449;SDS011;10384;51.940;8.432;2023-03-14T13:37:42;5.80;;;1.50;;
20449;SDS011;10384;51.940;8.432;2023-03-14T13:40:17;7.20;;;1.33;;
20449;SDS011;10384;51.940;8.432;2023-03-14T13:42:43;6.27;;;1.33;;
20449;SDS011;10384;51.940;8.432;2023-03-14T13:45:12;21.17;;;3.10;;
20449;SDS011;10384;51.940;8.432;2023-03-14T13:47:38;8.13;;;1.53;;
20449;SDS011;10384;51.940;8.432;2023-03-14T13:50:04;10.37;;;1.40;;
20449;SDS011;10384;51.940;8.432;2023-03-14T13:52:31;11.93;;;2.00;;
20449;SDS011;10384;51.940;8.432;2023-03-14T13:54:59;6.20;;;1.20;;
20449;SDS011;10384;51.940;8.432;2023-03-14T13:57:25;16.63;;;2.23;;
20449;SDS011;10384;51.940;8.432;2023-03-14T14:00:02;13.87;;;2.60;;
20449;SDS011;10384;51.940;8.432;2023-03-14T14:02:31;10.77;;;1.70;;
20449;SDS011;10384;51.940;8.432;2023-03-14T14:04:58;12.83;;;2.40;;
20449;SDS011;10384;51.940;8.432;2023-03-14T14:07:24;10.90;;;1.53;;
20449;SDS011;10384;51.940;8.432;2023-03-14T14:09:51;9.33;;;1.87;;
20449;SDS011;10384;51.940;8.432;2023-03-14T14:12:18;8.07;;;1.77;;
20449;SDS011;10384;51.940;8.432;2023-03-14T14:14:52;9.20;;;1.73;;
20449;SDS011;10384;51.940;8.432;2023-03-14T14:17:27;14.87;;;1.90;;
20449;SDS011;10384;51.940;8.432;2023-03-14T14:19:54;8.03;;;1.37;;
20449;SDS011;10384;51.940;8.432;2023-03-14T14:22:21;10.47;;;2.20;;
20449;SDS011;10384;51.940;8.432;2023-03-14T14:24:48;7.63;;;1.40;;
20449;SDS011;10384;51.940;8.432;2023-03-14T14:27:24;7.20;;;1.80;;
20449;SDS011;10384;51.940;8.432;2023-03-14T14:30:01;12.03;;;1.73;;
20449;SDS011;10384;51.940;8.432;2023-03-14T14:32:33;6.67;;;1.33;;
20449;SDS011;10384;51.940;8.432;2023-03-14T14:35:00;12.33;;;1.67;;
20449;SDS011;10384;51.940;8.432;2023-03-14T14:37:27;7.67;;;1.33;;
20449;SDS011;10384;51.940;8.432;2023-03-14T14:39:55;12.43;;;1.90;;
20449;SDS011;10384;51.940;8.432;2023-03-14T14:42:24;8.70;;;1.73;;
20449;SDS011;10384;51.940;8.432;2023-03-14T14:44:51;12.10;;;1.87;;
20449;SDS011;10384;51.940;8.432;2023-03-14T14:47:21;11.83;;;1.70;;
20449;SDS011;10384;51.940;8.432;2023-03-14T14:49:48;9.40;;;2.07;;
20449;SDS011;10384;51.940;8.432;2023-03-14T14:52:15;8.87;;;1.53;;
20449;SDS011;10384;51.940;8.432;2023-03-14T14:57:20;5.57;;;1.00;;
20449;SDS011;10384;51.940;8.432;2023-03-14T14:59:48;6.07;;;1.07;;
20449;SDS011;10384;51.940;8.432;2023-03-14T15:02:25;2.90;;;0.90;;
20449;SDS011;10384;51.940;8.432;2023-03-14T15:04:53;6.10;;;0.90;;
20449;SDS011;10384;51.940;8.432;2023-03-14T15:07:19;5.37;;;1.00;;
20449;SDS011;10384;51.940;8.432;2023-03-14T15:09:45;3.10;;;1.20;;
20449;SDS011;10384;51.940;8.432;2023-03-14T15:12:11;3.67;;;0.90;;
20449;SDS011;10384;51.940;8.432;2023-03-14T15:14:37;1.63;;;0.87;;
20449;SDS011;10384;51.940;8.432;2023-03-14T15:17:03;5.63;;;1.00;;
20449;SDS011;10384;51.940;8.432;2023-03-14T15:19:29;3.73;;;1.07;;
20449;SDS011;10384;51.940;8.432;2023-03-14T15:21:57;7.97;;;1.37;;
20449;SDS011;10384;51.940;8.432;2023-03-14T15:24:23;6.20;;;0.80;;
20449;SDS011;10384;51.940;8.432;2023-03-14T15:26:50;2.80;;;0.80;;
20449;SDS011;10384;51.940;8.432;2023-03-14T15:29:16;5.83;;;0.80;;
20449;SDS011;10384;51.940;8.432;2023-03-14T15:31:42;2.07;;;0.90;;
20449;SDS011;10384;51.940;8.432;2023-03-14T15:34:08;8.37;;;1.50;;
20449;SDS011;10384;51.940;8.432;2023-03-14T15:36:34;4.17;;;1.10;;
20449;SDS011;10384;51.940;8.432;2023-03-14T15:39:01;5.00;;;1.17;;
20449;SDS011;10384;51.940;8.432;2023-03-14T15:41:27;4.63;;;1.10;;
20449;SDS011;10384;51.940;8.432;2023-03-14T15:43:54;3.10;;;0.83;;
20449;SDS011;10384;51.940;8.432;2023-03-14T15:46:21;6.60;;;0.93;;
20449;SDS011;10384;51.940;8.432;2023-03-14T15:48:47;4.30;;;0.93;;
20449;SDS011;10384;51.940;8.432;2023-03-14T15:51:14;5.63;;;0.77;;
20449;SDS011;10384;51.940;8.432;2023-03-14T15:53:40;4.80;;;0.90;;
20449;SDS011;10384;51.940;8.432;2023-03-14T15:56:10;3.87;;;0.80;;
20449;SDS011;10384;51.940;8.432;2023-03-14T15:58:37;4.53;;;1.00;;
20449;SDS011;10384;51.940;8.432;2023-03-14T16:01:05;6.03;;;0.83;;